sensor_id;sensor_type;location;lat;lon;timestamp;P1;durP1;ratioP1;P2;durP2;ratioP2
63046;SDS011;62025;39.238;9.126;2023-10-13T00:00:26;18.30;;;6.20;;
63046;SDS011;62025;39.238;9.126;2023-10-13T00:02:58;20.52;;;5.80;;
63046;SDS011;62025;39.238;9.126;2023-10-13T00:05:28;19.17;;;5.90;;
63046;SDS011;62025;39.238;9.126;2023-10-13T00:07:58;17.80;;;5.93;;
63046;SDS011;62025;39.238;9.126;2023-10-13T00:10:35;19.65;;;5.97;;
63046;SDS011;62025;39.238;9.126;2023-10-13T00:13:01;18.65;;;6.05;;
63046;SDS011;62025;39.238;9.126;2023-10-13T00:15:46;12.57;;;5.18;;
63046;SDS011;62025;39.238;9.126;2023-10-13T00:18:25;15.25;;;5.30;;
63046;SDS011;62025;39.238;9.126;2023-10-13T00:20:59;16.48;;;5.10;;
63046;SDS011;62025;39.238;9.126;2023-10-13T00:23:28;13.85;;;5.13;;
63046;SDS011;62025;39.238;9.126;2023-10-13T00:25:57;18.63;;;5.32;;
63046;SDS011;62025;39.238;9.126;2023-10-13T00:28:28;13.85;;;5.70;;
63046;SDS011;62025;39.238;9.126;2023-10-13T00:31:11;17.05;;;5.97;;
63046;SDS011;62025;39.238;9.126;2023-10-13T00:33:39;14.32;;;5.95;;
63046;SDS011;62025;39.238;9.126;2023-10-13T00:36:10;13.77;;;6.00;;
63046;SDS011;62025;39.238;9.126;2023-10-13T00:38:42;17.50;;;5.55;;
63046;SDS011;62025;39.238;9.126;2023-10-13T00:41:13;18.73;;;5.45;;
63046;SDS011;62025;39.238;9.126;2023-10-13T00:43:47;11.32;;;5.53;;
63046;SDS011;62025;39.238;9.126;2023-10-13T00:46:33;14.50;;;5.85;;
63046;SDS011;62025;39.238;9.126;2023-10-13T00:49:01;18.00;;;6.43;;
63046;SDS011;62025;39.238;9.126;2023-10-13T00:51:31;15.82;;;6.20;;
63046;SDS011;62025;39.238;9.126;2023-10-13T00:54:03;13.77;;;5.18;;
63046;SDS011;62025;39.238;9.126;2023-10-13T00:56:38;15.70;;;5.85;;
63046;SDS011;62025;39.238;9.126;2023-10-13T00:59:22;14.13;;;5.72;;
63046;SDS011;62025;39.238;9.126;2023-10-13T01:01:53;18.88;;;5.80;;
63046;SDS011;62025;39.238;9.126;2023-10-13T01:04:21;16.15;;;5.97;;
63046;SDS011;62025;39.238;9.126;2023-10-13T01:06:53;14.13;;;6.00;;
63046;SDS011;62025;39.238;9.126;2023-10-13T01:09:19;12.30;;;5.80;;
63046;SDS011;62025;39.238;9.126;2023-10-13T01:11:46;16.92;;;5.75;;
63046;SDS011;62025;39.238;9.126;2023-10-13T01:14:20;17.08;;;5.85;;
63046;SDS011;62025;39.238;9.126;2023-10-13T01:16:49;18.48;;;5.15;;
63046;SDS011;62025;39.238;9.126;2023-10-13T01:19:18;16.15;;;5.35;;
63046;SDS011;62025;39.238;9.126;2023-10-13T01:21:50;17.38;;;5.15;;
63046;SDS011;62025;39.238;9.126;2023-10-13T01:24:30;12.35;;;5.57;;
63046;SDS011;62025;39.238;9.126;2023-10-13T01:27:02;13.13;;;5.20;;
63046;SDS011;62025;39.238;9.126;2023-10-13T01:29:48;13.73;;;5.18;;
63046;SDS011;62025;39.238;9.126;2023-10-13T01:32:18;13.40;;;5.00;;
63046;SDS011;62025;39.238;9.126;2023-10-13T01:34:46;11.40;;;4.90;;
63046;SDS011;62025;39.238;9.126;2023-10-13T01:37:14;14.38;;;4.93;;
63046;SDS011;62025;39.238;9.126;2023-10-13T01:39:41;15.18;;;4.75;;
63046;SDS011;62025;39.238;9.126;2023-10-13T01:42:12;13.93;;;5.47;;
63046;SDS011;62025;39.238;9.126;2023-10-13T01:44:45;14.05;;;4.88;;
63046;SDS011;62025;39.238;9.126;2023-10-13T01:47:11;13.73;;;5.47;;
63046;SDS011;62025;39.238;9.126;2023-10-13T01:49:37;13.50;;;5.93;;
63046;SDS011;62025;39.238;9.126;2023-10-13T01:52:08;10.60;;;5.15;;
63046;SDS011;62025;39.238;9.126;2023-10-13T01:54:41;15.07;;;5.50;;
63046;SDS011;62025;39.238;9.126;2023-10-13T01:57:10;16.10;;;5.30;;
63046;SDS011;62025;39.238;9.126;2023-10-13T01:59:43;17.00;;;4.60;;
63046;SDS011;62025;39.238;9.126;2023-10-13T02:02:13;15.50;;;5.20;;
63046;SDS011;62025;39.238;9.126;2023-10-13T02:04:40;12.50;;;4.88;;
63046;SDS011;62025;39.238;9.126;2023-10-13T02:07:22;13.98;;;4.65;;
63046;SDS011;62025;39.238;9.126;2023-10-13T02:09:59;10.20;;;4.65;;
63046;SDS011;62025;39.238;9.126;2023-10-13T02:12:30;12.88;;;4.47;;
63046;SDS011;62025;39.238;9.126;2023-10-13T02:15:09;15.95;;;4.80;;
63046;SDS011;62025;39.238;9.126;2023-10-13T02:17:46;14.82;;;4.63;;
63046;SDS011;62025;39.238;9.126;2023-10-13T02:20:17;11.32;;;4.40;;
63046;SDS011;62025;39.238;9.126;2023-10-13T02:22:43;15.35;;;4.47;;
63046;SDS011;62025;39.238;9.126;2023-10-13T02:25:18;10.05;;;4.50;;
63046;SDS011;62025;39.238;9.126;2023-10-13T02:28:01;14.27;;;4.78;;
63046;SDS011;62025;39.238;9.126;2023-10-13T02:30:27;15.73;;;5.88;;
63046;SDS011;62025;39.238;9.126;2023-10-13T02:32:55;13.77;;;4.80;;
63046;SDS011;62025;39.238;9.126;2023-10-13T02:35:21;13.70;;;4.43;;
63046;SDS011;62025;39.238;9.126;2023-10-13T02:37:56;14.18;;;5.00;;
63046;SDS011;62025;39.238;9.126;2023-10-13T02:40:34;12.73;;;5.43;;
63046;SDS011;62025;39.238;9.126;2023-10-13T02:43:01;16.73;;;5.43;;
63046;SDS011;62025;39.238;9.126;2023-10-13T02:45:32;14.25;;;5.38;;
63046;SDS011;62025;39.238;9.126;2023-10-13T02:48:03;14.55;;;5.47;;
63046;SDS011;62025;39.238;9.126;2023-10-13T02:50:39;16.48;;;6.07;;
63046;SDS011;62025;39.238;9.126;2023-10-13T02:53:08;19.08;;;6.18;;
63046;SDS011;62025;39.238;9.126;2023-10-13T02:55:50;11.20;;;6.40;;
63046;SDS011;62025;39.238;9.126;2023-10-13T02:58:18;16.13;;;6.72;;
63046;SDS011;62025;39.238;9.126;2023-10-13T03:00:44;16.90;;;6.82;;
63046;SDS011;62025;39.238;9.126;2023-10-13T03:03:11;17.40;;;7.60;;
63046;SDS011;62025;39.238;9.126;2023-10-13T03:05:41;18.05;;;8.40;;
63046;SDS011;62025;39.238;9.126;2023-10-13T03:08:08;20.35;;;7.95;;
63046;SDS011;62025;39.238;9.126;2023-10-13T03:10:36;16.10;;;7.68;;
63046;SDS011;62025;39.238;9.126;2023-10-13T03:13:10;18.60;;;8.43;;
63046;SDS011;62025;39.238;9.126;2023-10-13T03:15:36;20.77;;;8.40;;
63046;SDS011;62025;39.238;9.126;2023-10-13T03:18:02;22.23;;;8.45;;
63046;SDS011;62025;39.238;9.126;2023-10-13T03:20:28;17.92;;;8.70;;
63046;SDS011;62025;39.238;9.126;2023-10-13T03:22:58;17.05;;;8.50;;
63046;SDS011;62025;39.238;9.126;2023-10-13T03:25:25;16.88;;;8.73;;
63046;SDS011;62025;39.238;9.126;2023-10-13T03:27:55;21.25;;;9.02;;
63046;SDS011;62025;39.238;9.126;2023-10-13T03:30:21;22.00;;;8.55;;
63046;SDS011;62025;39.238;9.126;2023-10-13T03:32:55;18.67;;;8.00;;
63046;SDS011;62025;39.238;9.126;2023-10-13T03:35:22;22.63;;;8.80;;
63046;SDS011;62025;39.238;9.126;2023-10-13T03:37:54;18.60;;;8.32;;
63046;SDS011;62025;39.238;9.126;2023-10-13T03:40:20;18.65;;;8.25;;
63046;SDS011;62025;39.238;9.126;2023-10-13T03:45:29;16.02;;;9.05;;
63046;SDS011;62025;39.238;9.126;2023-10-13T03:48:03;16.83;;;8.43;;
63046;SDS011;62025;39.238;9.126;2023-10-13T03:50:50;16.75;;;8.10;;
63046;SDS011;62025;39.238;9.126;2023-10-13T03:53:33;24.83;;;9.02;;
63046;SDS011;62025;39.238;9.126;2023-10-13T03:58:34;21.38;;;8.93;;
63046;SDS011;62025;39.238;9.126;2023-10-13T04:01:07;33.25;;;9.45;;
63046;SDS011;62025;39.238;9.126;2023-10-13T04:03:39;19.63;;;8.80;;
63046;SDS011;62025;39.238;9.126;2023-10-13T04:06:22;22.75;;;9.10;;
63046;SDS011;62025;39.238;9.126;2023-10-13T04:09:30;19.08;;;8.88;;
63046;SDS011;62025;39.238;9.126;2023-10-13T04:14:37;22.33;;;8.68;;
63046;SDS011;62025;39.238;9.126;2023-10-13T04:17:23;23.23;;;9.25;;
63046;SDS011;62025;39.238;9.126;2023-10-13T04:19:53;24.55;;;9.13;;
63046;SDS011;62025;39.238;9.126;2023-10-13T04:22:33;19.45;;;9.07;;
63046;SDS011;62025;39.238;9.126;2023-10-13T04:28:24;19.98;;;9.35;;
63046;SDS011;62025;39.238;9.126;2023-10-13T04:31:00;30.90;;;10.57;;
63046;SDS011;62025;39.238;9.126;2023-10-13T04:33:37;21.55;;;9.93;;
63046;SDS011;62025;39.238;9.126;2023-10-13T04:36:30;21.00;;;10.45;;
63046;SDS011;62025;39.238;9.126;2023-10-13T04:38:56;26.33;;;9.65;;
63046;SDS011;62025;39.238;9.126;2023-10-13T04:44:16;25.40;;;11.45;;
63046;SDS011;62025;39.238;9.126;2023-10-13T04:46:55;16.27;;;9.88;;
63046;SDS011;62025;39.238;9.126;2023-10-13T04:49:30;26.30;;;11.90;;
63046;SDS011;62025;39.238;9.126;2023-10-13T04:52:15;21.55;;;10.65;;
63046;SDS011;62025;39.238;9.126;2023-10-13T04:55:00;23.42;;;10.80;;
63046;SDS011;62025;39.238;9.126;2023-10-13T04:57:45;22.42;;;10.60;;
63046;SDS011;62025;39.238;9.126;2023-10-13T05:00:13;16.13;;;9.90;;
63046;SDS011;62025;39.238;9.126;2023-10-13T05:02:43;19.08;;;11.13;;
63046;SDS011;62025;39.238;9.126;2023-10-13T05:05:25;23.02;;;10.55;;
63046;SDS011;62025;39.238;9.126;2023-10-13T05:08:11;21.85;;;10.68;;
63046;SDS011;62025;39.238;9.126;2023-10-13T05:10:57;19.58;;;9.10;;
63046;SDS011;62025;39.238;9.126;2023-10-13T05:13:42;22.52;;;10.05;;
63046;SDS011;62025;39.238;9.126;2023-10-13T05:16:26;26.42;;;11.95;;
63046;SDS011;62025;39.238;9.126;2023-10-13T05:19:11;23.58;;;11.80;;
63046;SDS011;62025;39.238;9.126;2023-10-13T05:21:55;28.92;;;11.82;;
63046;SDS011;62025;39.238;9.126;2023-10-13T05:24:40;23.60;;;12.52;;
63046;SDS011;62025;39.238;9.126;2023-10-13T05:27:24;26.25;;;12.65;;
63046;SDS011;62025;39.238;9.126;2023-10-13T05:30:08;22.88;;;12.35;;
63046;SDS011;62025;39.238;9.126;2023-10-13T05:32:54;22.95;;;12.70;;
63046;SDS011;62025;39.238;9.126;2023-10-13T05:35:38;30.33;;;12.35;;
63046;SDS011;62025;39.238;9.126;2023-10-13T05:38:23;27.15;;;11.75;;
63046;SDS011;62025;39.238;9.126;2023-10-13T05:41:07;23.70;;;11.90;;
63046;SDS011;62025;39.238;9.126;2023-10-13T05:43:52;21.15;;;11.30;;
63046;SDS011;62025;39.238;9.126;2023-10-13T05:46:36;29.60;;;13.35;;
63046;SDS011;62025;39.238;9.126;2023-10-13T05:49:03;24.63;;;13.68;;
63046;SDS011;62025;39.238;9.126;2023-10-13T05:51:31;25.52;;;13.23;;
63046;SDS011;62025;39.238;9.126;2023-10-13T05:54:02;29.83;;;13.18;;
63046;SDS011;62025;39.238;9.126;2023-10-13T05:56:49;34.63;;;16.40;;
63046;SDS011;62025;39.238;9.126;2023-10-13T05:59:36;41.03;;;18.50;;
63046;SDS011;62025;39.238;9.126;2023-10-13T06:02:22;55.70;;;24.67;;
63046;SDS011;62025;39.238;9.126;2023-10-13T06:05:08;60.63;;;27.08;;
63046;SDS011;62025;39.238;9.126;2023-10-13T06:07:55;62.40;;;25.90;;
63046;SDS011;62025;39.238;9.126;2023-10-13T06:10:40;55.00;;;24.30;;
63046;SDS011;62025;39.238;9.126;2023-10-13T06:13:26;57.20;;;25.38;;
63046;SDS011;62025;39.238;9.126;2023-10-13T06:16:11;47.88;;;24.17;;
63046;SDS011;62025;39.238;9.126;2023-10-13T06:19:11;54.22;;;21.90;;
63046;SDS011;62025;39.238;9.126;2023-10-13T06:21:56;41.83;;;19.95;;
63046;SDS011;62025;39.238;9.126;2023-10-13T06:24:40;51.70;;;19.92;;
63046;SDS011;62025;39.238;9.126;2023-10-13T06:27:25;35.60;;;17.70;;
63046;SDS011;62025;39.238;9.126;2023-10-13T06:30:09;43.95;;;17.58;;
63046;SDS011;62025;39.238;9.126;2023-10-13T06:32:37;37.83;;;17.45;;
63046;SDS011;62025;39.238;9.126;2023-10-13T06:35:05;26.52;;;12.52;;
63046;SDS011;62025;39.238;9.126;2023-10-13T06:37:44;34.80;;;14.65;;
63046;SDS011;62025;39.238;9.126;2023-10-13T06:40:12;29.52;;;13.25;;
63046;SDS011;62025;39.238;9.126;2023-10-13T06:42:52;27.50;;;11.15;;
63046;SDS011;62025;39.238;9.126;2023-10-13T06:45:20;21.23;;;10.50;;
63046;SDS011;62025;39.238;9.126;2023-10-13T06:47:47;21.33;;;11.68;;
63046;SDS011;62025;39.238;9.126;2023-10-13T06:50:20;30.10;;;10.13;;
63046;SDS011;62025;39.238;9.126;2023-10-13T06:52:50;18.92;;;10.35;;
63046;SDS011;62025;39.238;9.126;2023-10-13T06:55:20;23.90;;;10.23;;
63046;SDS011;62025;39.238;9.126;2023-10-13T06:57:52;25.45;;;10.05;;
63046;SDS011;62025;39.238;9.126;2023-10-13T07:00:24;27.33;;;9.77;;
63046;SDS011;62025;39.238;9.126;2023-10-13T07:02:55;30.77;;;10.57;;
63046;SDS011;62025;39.238;9.126;2023-10-13T07:05:36;21.90;;;10.65;;
63046;SDS011;62025;39.238;9.126;2023-10-13T07:08:09;22.63;;;9.27;;
63046;SDS011;62025;39.238;9.126;2023-10-13T07:10:52;23.45;;;11.98;;
63046;SDS011;62025;39.238;9.126;2023-10-13T07:13:30;36.17;;;12.02;;
63046;SDS011;62025;39.238;9.126;2023-10-13T07:16:02;25.50;;;10.95;;
63046;SDS011;62025;39.238;9.126;2023-10-13T07:18:37;28.88;;;10.73;;
63046;SDS011;62025;39.238;9.126;2023-10-13T07:21:17;28.45;;;10.50;;
63046;SDS011;62025;39.238;9.126;2023-10-13T07:23:56;28.73;;;10.43;;
63046;SDS011;62025;39.238;9.126;2023-10-13T07:26:36;17.73;;;9.30;;
63046;SDS011;62025;39.238;9.126;2023-10-13T07:29:10;25.45;;;9.45;;
63046;SDS011;62025;39.238;9.126;2023-10-13T07:31:38;27.38;;;10.20;;
63046;SDS011;62025;39.238;9.126;2023-10-13T07:34:06;19.85;;;9.85;;
63046;SDS011;62025;39.238;9.126;2023-10-13T07:36:39;26.25;;;10.35;;
63046;SDS011;62025;39.238;9.126;2023-10-13T07:39:08;21.48;;;9.07;;
63046;SDS011;62025;39.238;9.126;2023-10-13T07:41:50;28.05;;;9.20;;
63046;SDS011;62025;39.238;9.126;2023-10-13T07:44:28;23.17;;;9.43;;
63046;SDS011;62025;39.238;9.126;2023-10-13T07:46:58;27.08;;;8.77;;
63046;SDS011;62025;39.238;9.126;2023-10-13T07:49:31;23.75;;;9.23;;
63046;SDS011;62025;39.238;9.126;2023-10-13T07:52:02;21.38;;;9.98;;
63046;SDS011;62025;39.238;9.126;2023-10-13T07:54:45;21.40;;;9.18;;
63046;SDS011;62025;39.238;9.126;2023-10-13T07:57:15;16.98;;;8.88;;
63046;SDS011;62025;39.238;9.126;2023-10-13T07:59:42;28.93;;;9.50;;
63046;SDS011;62025;39.238;9.126;2023-10-13T08:02:14;22.88;;;8.57;;
63046;SDS011;62025;39.238;9.126;2023-10-13T08:05:00;16.25;;;8.10;;
63046;SDS011;62025;39.238;9.126;2023-10-13T08:07:26;21.65;;;8.75;;
63046;SDS011;62025;39.238;9.126;2023-10-13T08:09:53;19.13;;;7.32;;
63046;SDS011;62025;39.238;9.126;2023-10-13T08:12:22;19.42;;;7.25;;
63046;SDS011;62025;39.238;9.126;2023-10-13T08:14:48;21.67;;;7.85;;
63046;SDS011;62025;39.238;9.126;2023-10-13T08:17:14;21.10;;;7.78;;
63046;SDS011;62025;39.238;9.126;2023-10-13T08:19:40;17.95;;;7.72;;
63046;SDS011;62025;39.238;9.126;2023-10-13T08:22:15;18.27;;;7.85;;
63046;SDS011;62025;39.238;9.126;2023-10-13T08:24:47;13.68;;;7.15;;
63046;SDS011;62025;39.238;9.126;2023-10-13T08:27:15;19.08;;;7.55;;
63046;SDS011;62025;39.238;9.126;2023-10-13T08:30:00;18.05;;;8.07;;
63046;SDS011;62025;39.238;9.126;2023-10-13T08:32:30;20.13;;;7.00;;
63046;SDS011;62025;39.238;9.126;2023-10-13T08:35:00;17.00;;;7.78;;
63046;SDS011;62025;39.238;9.126;2023-10-13T08:37:30;21.05;;;7.07;;
63046;SDS011;62025;39.238;9.126;2023-10-13T08:40:26;18.92;;;7.82;;
63046;SDS011;62025;39.238;9.126;2023-10-13T08:43:11;19.63;;;7.18;;
63046;SDS011;62025;39.238;9.126;2023-10-13T08:45:39;31.65;;;7.55;;
63046;SDS011;62025;39.238;9.126;2023-10-13T08:48:08;22.88;;;7.10;;
63046;SDS011;62025;39.238;9.126;2023-10-13T08:50:46;25.30;;;7.55;;
63046;SDS011;62025;39.238;9.126;2023-10-13T08:56:01;23.10;;;7.57;;
63046;SDS011;62025;39.238;9.126;2023-10-13T08:58:34;18.45;;;7.10;;
63046;SDS011;62025;39.238;9.126;2023-10-13T09:01:21;26.25;;;7.20;;
63046;SDS011;62025;39.238;9.126;2023-10-13T09:04:08;21.33;;;7.40;;
63046;SDS011;62025;39.238;9.126;2023-10-13T09:06:55;17.38;;;7.00;;
63046;SDS011;62025;39.238;9.126;2023-10-13T09:12:12;19.13;;;6.18;;
63046;SDS011;62025;39.238;9.126;2023-10-13T09:14:54;15.50;;;5.65;;
63046;SDS011;62025;39.238;9.126;2023-10-13T09:17:29;14.75;;;5.88;;
63046;SDS011;62025;39.238;9.126;2023-10-13T09:19:59;16.20;;;5.57;;
63046;SDS011;62025;39.238;9.126;2023-10-13T09:22:53;16.10;;;5.28;;
63046;SDS011;62025;39.238;9.126;2023-10-13T09:25:33;12.90;;;5.75;;
63046;SDS011;62025;39.238;9.126;2023-10-13T09:28:18;15.07;;;5.95;;
63046;SDS011;62025;39.238;9.126;2023-10-13T09:30:54;18.48;;;6.88;;
63046;SDS011;62025;39.238;9.126;2023-10-13T09:33:27;12.98;;;5.15;;
63046;SDS011;62025;39.238;9.126;2023-10-13T09:35:58;17.40;;;6.25;;
63046;SDS011;62025;39.238;9.126;2023-10-13T09:38:28;18.97;;;5.97;;
63046;SDS011;62025;39.238;9.126;2023-10-13T09:40:54;18.08;;;5.97;;
63046;SDS011;62025;39.238;9.126;2023-10-13T09:43:26;15.05;;;5.80;;
63046;SDS011;62025;39.238;9.126;2023-10-13T09:46:00;14.38;;;5.82;;
63046;SDS011;62025;39.238;9.126;2023-10-13T09:48:39;13.35;;;5.45;;
63046;SDS011;62025;39.238;9.126;2023-10-13T09:51:13;11.35;;;4.80;;
63046;SDS011;62025;39.238;9.126;2023-10-13T09:56:46;16.77;;;4.78;;
63046;SDS011;62025;39.238;9.126;2023-10-13T09:59:30;14.43;;;4.95;;
63046;SDS011;62025;39.238;9.126;2023-10-13T10:02:05;14.32;;;5.00;;
63046;SDS011;62025;39.238;9.126;2023-10-13T10:04:34;14.07;;;5.30;;
63046;SDS011;62025;39.238;9.126;2023-10-13T10:07:23;12.75;;;4.80;;
63046;SDS011;62025;39.238;9.126;2023-10-13T10:09:57;14.88;;;4.80;;
63046;SDS011;62025;39.238;9.126;2023-10-13T10:17:45;13.95;;;5.05;;
63046;SDS011;62025;39.238;9.126;2023-10-13T10:20:15;16.77;;;5.03;;
63046;SDS011;62025;39.238;9.126;2023-10-13T10:22:55;14.40;;;5.47;;
63046;SDS011;62025;39.238;9.126;2023-10-13T10:25:28;15.43;;;5.95;;
63046;SDS011;62025;39.238;9.126;2023-10-13T10:28:04;13.52;;;5.05;;
63046;SDS011;62025;39.238;9.126;2023-10-13T10:30:32;15.18;;;4.82;;
63046;SDS011;62025;39.238;9.126;2023-10-13T10:33:07;10.52;;;4.20;;
63046;SDS011;62025;39.238;9.126;2023-10-13T10:35:41;14.50;;;4.55;;
63046;SDS011;62025;39.238;9.126;2023-10-13T10:41:03;9.88;;;4.68;;
63046;SDS011;62025;39.238;9.126;2023-10-13T10:48:41;10.88;;;4.28;;
63046;SDS011;62025;39.238;9.126;2023-10-13T10:51:14;12.95;;;4.43;;
63046;SDS011;62025;39.238;9.126;2023-10-13T10:53:50;11.23;;;4.32;;
63046;SDS011;62025;39.238;9.126;2023-10-13T10:56:27;15.90;;;4.60;;
63046;SDS011;62025;39.238;9.126;2023-10-13T10:59:03;9.20;;;3.53;;
63046;SDS011;62025;39.238;9.126;2023-10-13T11:01:33;9.55;;;4.03;;
63046;SDS011;62025;39.238;9.126;2023-10-13T11:04:12;9.65;;;3.42;;
63046;SDS011;62025;39.238;9.126;2023-10-13T11:06:49;7.00;;;3.40;;
63046;SDS011;62025;39.238;9.126;2023-10-13T11:14:49;10.82;;;4.05;;
63046;SDS011;62025;39.238;9.126;2023-10-13T11:17:55;7.97;;;3.80;;
63046;SDS011;62025;39.238;9.126;2023-10-13T11:20:22;8.70;;;3.55;;
63046;SDS011;62025;39.238;9.126;2023-10-13T11:22:51;8.50;;;3.60;;
63046;SDS011;62025;39.238;9.126;2023-10-13T11:30:46;9.23;;;3.35;;
63046;SDS011;62025;39.238;9.126;2023-10-13T11:33:17;10.50;;;3.85;;
63046;SDS011;62025;39.238;9.126;2023-10-13T11:35:49;9.18;;;3.05;;
63046;SDS011;62025;39.238;9.126;2023-10-13T11:38:31;9.15;;;3.28;;
63046;SDS011;62025;39.238;9.126;2023-10-13T11:41:14;7.80;;;3.05;;
63046;SDS011;62025;39.238;9.126;2023-10-13T11:43:42;7.05;;;3.30;;
63046;SDS011;62025;39.238;9.126;2023-10-13T11:46:17;8.40;;;3.65;;
63046;SDS011;62025;39.238;9.126;2023-10-13T11:49:00;8.57;;;3.58;;
63046;SDS011;62025;39.238;9.126;2023-10-13T11:51:45;8.52;;;3.10;;
63046;SDS011;62025;39.238;9.126;2023-10-13T11:54:20;8.18;;;3.40;;
63046;SDS011;62025;39.238;9.126;2023-10-13T11:56:48;9.23;;;3.20;;
63046;SDS011;62025;39.238;9.126;2023-10-13T11:59:15;11.40;;;3.25;;
63046;SDS011;62025;39.238;9.126;2023-10-13T12:01:46;11.65;;;3.53;;
63046;SDS011;62025;39.238;9.126;2023-10-13T12:04:32;11.40;;;3.35;;
63046;SDS011;62025;39.238;9.126;2023-10-13T12:07:20;9.35;;;3.70;;
63046;SDS011;62025;39.238;9.126;2023-10-13T12:10:10;12.50;;;3.75;;
63046;SDS011;62025;39.238;9.126;2023-10-13T12:12:55;8.15;;;3.15;;
63046;SDS011;62025;39.238;9.126;2023-10-13T12:15:21;12.07;;;3.83;;
63046;SDS011;62025;39.238;9.126;2023-10-13T12:18:02;10.55;;;3.72;;
63046;SDS011;62025;39.238;9.126;2023-10-13T12:20:29;10.70;;;3.78;;
63046;SDS011;62025;39.238;9.126;2023-10-13T12:23:00;8.45;;;3.58;;
63046;SDS011;62025;39.238;9.126;2023-10-13T12:25:36;8.02;;;3.72;;
63046;SDS011;62025;39.238;9.126;2023-10-13T12:28:22;7.00;;;3.50;;
63046;SDS011;62025;39.238;9.126;2023-10-13T12:30:51;10.20;;;4.10;;
63046;SDS011;62025;39.238;9.126;2023-10-13T12:35:57;13.57;;;3.92;;
63046;SDS011;62025;39.238;9.126;2023-10-13T12:38:53;10.45;;;3.70;;
63046;SDS011;62025;39.238;9.126;2023-10-13T12:41:34;10.13;;;4.10;;
63046;SDS011;62025;39.238;9.126;2023-10-13T12:44:18;10.85;;;3.90;;
63046;SDS011;62025;39.238;9.126;2023-10-13T12:47:03;6.18;;;3.70;;
63046;SDS011;62025;39.238;9.126;2023-10-13T12:49:47;10.15;;;3.53;;
63046;SDS011;62025;39.238;9.126;2023-10-13T12:52:13;8.13;;;3.63;;
63046;SDS011;62025;39.238;9.126;2023-10-13T12:54:51;10.73;;;4.20;;
63046;SDS011;62025;39.238;9.126;2023-10-13T12:57:25;6.57;;;3.80;;
63046;SDS011;62025;39.238;9.126;2023-10-13T12:59:53;8.10;;;4.00;;
63046;SDS011;62025;39.238;9.126;2023-10-13T13:02:23;7.90;;;3.43;;
63046;SDS011;62025;39.238;9.126;2023-10-13T13:04:51;5.93;;;3.70;;
63046;SDS011;62025;39.238;9.126;2023-10-13T13:07:39;6.28;;;4.03;;
63046;SDS011;62025;39.238;9.126;2023-10-13T13:10:14;7.32;;;3.55;;
63046;SDS011;62025;39.238;9.126;2023-10-13T13:12:41;6.22;;;3.40;;
63046;SDS011;62025;39.238;9.126;2023-10-13T13:15:07;10.07;;;3.75;;
63046;SDS011;62025;39.238;9.126;2023-10-13T13:17:37;9.93;;;4.03;;
63046;SDS011;62025;39.238;9.126;2023-10-13T13:20:07;7.57;;;3.90;;
63046;SDS011;62025;39.238;9.126;2023-10-13T13:22:51;9.48;;;4.50;;
63046;SDS011;62025;39.238;9.126;2023-10-13T13:25:19;7.75;;;3.95;;
63046;SDS011;62025;39.238;9.126;2023-10-13T13:27:55;9.23;;;3.78;;
63046;SDS011;62025;39.238;9.126;2023-10-13T13:30:29;10.73;;;3.60;;
63046;SDS011;62025;39.238;9.126;2023-10-13T13:33:00;8.88;;;3.95;;
63046;SDS011;62025;39.238;9.126;2023-10-13T13:35:38;8.88;;;3.90;;
63046;SDS011;62025;39.238;9.126;2023-10-13T13:38:04;8.07;;;3.88;;
63046;SDS011;62025;39.238;9.126;2023-10-13T13:40:47;11.95;;;3.78;;
63046;SDS011;62025;39.238;9.126;2023-10-13T13:43:22;9.43;;;3.80;;
63046;SDS011;62025;39.238;9.126;2023-10-13T13:46:03;10.23;;;3.67;;
63046;SDS011;62025;39.238;9.126;2023-10-13T13:48:38;10.40;;;4.10;;
63046;SDS011;62025;39.238;9.126;2023-10-13T13:51:06;8.65;;;3.28;;
63046;SDS011;62025;39.238;9.126;2023-10-13T13:53:40;7.82;;;3.63;;
63046;SDS011;62025;39.238;9.126;2023-10-13T13:56:18;9.13;;;3.45;;
63046;SDS011;62025;39.238;9.126;2023-10-13T14:01:12;10.43;;;4.07;;
63046;SDS011;62025;39.238;9.126;2023-10-13T14:03:44;7.88;;;3.88;;
63046;SDS011;62025;39.238;9.126;2023-10-13T14:06:15;4.72;;;3.47;;
63046;SDS011;62025;39.238;9.126;2023-10-13T14:08:43;7.70;;;3.58;;
63046;SDS011;62025;39.238;9.126;2023-10-13T14:11:14;6.60;;;3.83;;
63046;SDS011;62025;39.238;9.126;2023-10-13T14:13:49;6.57;;;3.90;;
63046;SDS011;62025;39.238;9.126;2023-10-13T14:16:21;6.13;;;3.33;;
63046;SDS011;62025;39.238;9.126;2023-10-13T14:18:48;7.18;;;4.10;;
63046;SDS011;62025;39.238;9.126;2023-10-13T14:21:16;9.35;;;3.80;;
63046;SDS011;62025;39.238;9.126;2023-10-13T14:23:47;11.95;;;3.58;;
63046;SDS011;62025;39.238;9.126;2023-10-13T14:26:15;13.23;;;3.70;;
63046;SDS011;62025;39.238;9.126;2023-10-13T14:28:53;11.23;;;3.58;;
63046;SDS011;62025;39.238;9.126;2023-10-13T14:31:29;8.07;;;4.20;;
63046;SDS011;62025;39.238;9.126;2023-10-13T14:33:56;11.57;;;3.83;;
63046;SDS011;62025;39.238;9.126;2023-10-13T14:36:23;10.57;;;4.05;;
63046;SDS011;62025;39.238;9.126;2023-10-13T14:38:54;9.40;;;3.78;;
63046;SDS011;62025;39.238;9.126;2023-10-13T14:41:21;7.55;;;4.30;;
63046;SDS011;62025;39.238;9.126;2023-10-13T14:43:47;14.55;;;4.00;;
63046;SDS011;62025;39.238;9.126;2023-10-13T14:46:17;11.02;;;3.97;;
63046;SDS011;62025;39.238;9.126;2023-10-13T14:48:53;10.02;;;3.83;;
63046;SDS011;62025;39.238;9.126;2023-10-13T14:51:19;8.02;;;3.80;;
63046;SDS011;62025;39.238;9.126;2023-10-13T14:53:46;10.48;;;3.90;;
63046;SDS011;62025;39.238;9.126;2023-10-13T14:56:16;7.00;;;3.75;;
63046;SDS011;62025;39.238;9.126;2023-10-13T14:58:43;9.05;;;3.50;;
63046;SDS011;62025;39.238;9.126;2023-10-13T15:01:13;7.60;;;3.65;;
63046;SDS011;62025;39.238;9.126;2023-10-13T15:03:48;8.23;;;4.32;;
63046;SDS011;62025;39.238;9.126;2023-10-13T15:06:16;8.50;;;3.65;;
63046;SDS011;62025;39.238;9.126;2023-10-13T15:11:14;6.03;;;4.00;;
63046;SDS011;62025;39.238;9.126;2023-10-13T15:13:43;6.43;;;3.65;;
63046;SDS011;62025;39.238;9.126;2023-10-13T15:16:15;11.55;;;3.63;;
63046;SDS011;62025;39.238;9.126;2023-10-13T15:18:50;9.27;;;3.45;;
63046;SDS011;62025;39.238;9.126;2023-10-13T15:23:57;8.40;;;3.72;;
63046;SDS011;62025;39.238;9.126;2023-10-13T15:26:29;9.55;;;3.30;;
63046;SDS011;62025;39.238;9.126;2023-10-13T15:28:59;10.68;;;3.92;;
63046;SDS011;62025;39.238;9.126;2023-10-13T15:31:26;7.63;;;3.45;;
63046;SDS011;62025;39.238;9.126;2023-10-13T15:34:02;11.90;;;3.63;;
63046;SDS011;62025;39.238;9.126;2023-10-13T15:36:41;12.48;;;3.72;;
63046;SDS011;62025;39.238;9.126;2023-10-13T15:39:12;7.72;;;3.60;;
63046;SDS011;62025;39.238;9.126;2023-10-13T15:41:41;10.63;;;3.50;;
63046;SDS011;62025;39.238;9.126;2023-10-13T15:44:10;6.88;;;3.72;;
63046;SDS011;62025;39.238;9.126;2023-10-13T15:46:38;5.95;;;3.65;;
63046;SDS011;62025;39.238;9.126;2023-10-13T15:49:05;7.50;;;4.13;;
63046;SDS011;62025;39.238;9.126;2023-10-13T15:51:34;12.63;;;3.95;;
63046;SDS011;62025;39.238;9.126;2023-10-13T15:54:02;10.43;;;4.30;;
63046;SDS011;62025;39.238;9.126;2023-10-13T15:56:29;7.60;;;3.88;;
63046;SDS011;62025;39.238;9.126;2023-10-13T15:59:01;8.02;;;3.70;;
63046;SDS011;62025;39.238;9.126;2023-10-13T16:01:27;5.63;;;3.60;;
63046;SDS011;62025;39.238;9.126;2023-10-13T16:03:54;9.68;;;4.07;;
63046;SDS011;62025;39.238;9.126;2023-10-13T16:06:20;9.80;;;3.95;;
63046;SDS011;62025;39.238;9.126;2023-10-13T16:08:51;8.70;;;4.00;;
63046;SDS011;62025;39.238;9.126;2023-10-13T16:11:18;8.77;;;4.00;;
63046;SDS011;62025;39.238;9.126;2023-10-13T16:13:45;9.65;;;3.67;;